sensor_id;sensor_type;location;lat;lon;timestamp;pressure;altitude;pressure_sealevel;temperature;humidity
39309;BME280;26019;47.510;19.122;2024-03-29T00:01:43;99291.34;;;8.21;100.00
39309;BME280;26019;47.510;19.122;2024-03-29T00:11:44;99349.72;;;8.17;100.00
39309;BME280;26019;47.510;19.122;2024-03-29T00:21:48;99404.69;;;8.13;100.00
39309;BME280;26019;47.510;19.122;2024-03-29T00:31:53;99436.47;;;8.11;100.00
39309;BME280;26019;47.510;19.122;2024-03-29T00:41:54;99427.94;;;8.05;100.00
39309;BME280;26019;47.510;19.122;2024-03-29T00:51:55;99453.56;;;8.12;100.00
39309;BME280;26019;47.510;19.122;2024-03-29T01:01:57;99460.53;;;8.02;100.00
39309;BME280;26019;47.510;19.122;2024-03-29T01:11:58;99472.53;;;8.04;100.00
39309;BME280;26019;47.510;19.122;2024-03-29T01:21:59;99459.75;;;7.95;100.00
39309;BME280;26019;47.510;19.122;2024-03-29T01:32:00;99490.94;;;7.56;100.00
39309;BME280;26019;47.510;19.122;2024-03-29T01:42:01;99493.59;;;7.42;100.00
39309;BME280;26019;47.510;19.122;2024-03-29T01:52:03;99521.03;;;7.36;100.00
39309;BME280;26019;47.510;19.122;2024-03-29T02:02:06;99563.88;;;7.35;100.00
39309;BME280;26019;47.510;19.122;2024-03-29T02:12:08;99566.53;;;7.21;100.00
39309;BME280;26019;47.510;19.122;2024-03-29T02:22:11;99620.50;;;7.15;100.00
39309;BME280;26019;47.510;19.122;2024-03-29T02:32:18;99649.63;;;7.17;100.00
39309;BME280;26019;47.510;19.122;2024-03-29T02:42:19;99673.63;;;6.97;100.00
39309;BME280;26019;47.510;19.122;2024-03-29T02:52:21;99673.66;;;6.86;100.00
39309;BME280;26019;47.510;19.122;2024-03-29T03:02:22;99670.25;;;6.80;100.00
39309;BME280;26019;47.510;19.122;2024-03-29T03:12:23;99695.06;;;6.75;100.00
39309;BME280;26019;47.510;19.122;2024-03-29T03:22:30;99713.88;;;7.00;100.00
39309;BME280;26019;47.510;19.122;2024-03-29T03:32:41;99719.88;;;7.13;100.00
39309;BME280;26019;47.510;19.122;2024-03-29T03:42:42;99704.44;;;7.07;100.00
39309;BME280;26019;47.510;19.122;2024-03-29T03:52:43;99722.44;;;7.02;100.00
39309;BME280;26019;47.510;19.122;2024-03-29T04:02:49;99724.13;;;7.26;100.00
39309;BME280;26019;47.510;19.122;2024-03-29T04:12:51;99761.00;;;6.91;100.00
39309;BME280;26019;47.510;19.122;2024-03-29T04:22:52;99800.38;;;6.73;100.00
39309;BME280;26019;47.510;19.122;2024-03-29T04:32:53;99786.59;;;6.40;100.00
39309;BME280;26019;47.510;19.122;2024-03-29T04:42:57;99792.53;;;6.23;100.00
39309;BME280;26019;47.510;19.122;2024-03-29T04:52:58;99811.31;;;6.10;100.00
39309;BME280;26019;47.510;19.122;2024-03-29T05:02:59;99841.25;;;6.17;100.00
39309;BME280;26019;47.510;19.122;2024-03-29T05:13:00;99857.53;;;6.25;100.00
39309;BME280;26019;47.510;19.122;2024-03-29T05:23:03;99873.94;;;6.57;100.00
39309;BME280;26019;47.510;19.122;2024-03-29T05:33:07;99863.66;;;6.54;100.00
39309;BME280;26019;47.510;19.122;2024-03-29T05:43:07;99890.25;;;6.81;100.00
39309;BME280;26019;47.510;19.122;2024-03-29T05:53:14;99907.44;;;7.03;100.00
39309;BME280;26019;47.510;19.122;2024-03-29T06:03:15;99915.16;;;7.16;100.00
39309;BME280;26019;47.510;19.122;2024-03-29T06:13:16;99923.75;;;7.37;100.00
39309;BME280;26019;47.510;19.122;2024-03-29T06:23:37;99909.19;;;7.88;100.00
39309;BME280;26019;47.510;19.122;2024-03-29T06:33:38;99926.34;;;7.69;100.00
39309;BME280;26019;47.510;19.122;2024-03-29T06:43:44;99954.59;;;8.08;100.00
39309;BME280;26019;47.510;19.122;2024-03-29T06:53:45;99953.72;;;8.18;100.00
39309;BME280;26019;47.510;19.122;2024-03-29T07:03:47;99941.63;;;8.47;100.00
39309;BME280;26019;47.510;19.122;2024-03-29T07:13:54;99953.44;;;8.99;100.00
39309;BME280;26019;47.510;19.122;2024-03-29T07:23:55;99984.94;;;9.54;100.00
39309;BME280;26019;47.510;19.122;2024-03-29T07:33:56;99986.44;;;9.78;100.00
39309;BME280;26019;47.510;19.122;2024-03-29T07:43:58;100004.94;;;10.28;100.00
39309;BME280;26019;47.510;19.122;2024-03-29T07:54:04;100001.91;;;10.75;100.00
39309;BME280;26019;47.510;19.122;2024-03-29T08:04:10;100005.72;;;11.16;100.00
39309;BME280;26019;47.510;19.122;2024-03-29T08:14:10;100010.75;;;11.26;100.00
39309;BME280;26019;47.510;19.122;2024-03-29T08:24:11;100005.97;;;12.14;96.02
39309;BME280;26019;47.510;19.122;2024-03-29T08:34:14;99997.34;;;13.03;83.13
39309;BME280;26019;47.510;19.122;2024-03-29T08:44:15;99998.94;;;13.87;67.46
39309;BME280;26019;47.510;19.122;2024-03-29T08:54:16;99989.19;;;14.30;59.65
39309;BME280;26019;47.510;19.122;2024-03-29T09:04:17;99987.72;;;14.84;59.94
39309;BME280;26019;47.510;19.122;2024-03-29T09:14:18;99981.53;;;15.74;53.44
39309;BME280;26019;47.510;19.122;2024-03-29T09:24:18;99957.03;;;20.17;41.95
39309;BME280;26019;47.510;19.122;2024-03-29T09:34:22;99980.31;;;16.11;44.79
39309;BME280;26019;47.510;19.122;2024-03-29T09:44:25;99964.50;;;15.90;47.70
39309;BME280;26019;47.510;19.122;2024-03-29T09:54:31;99940.81;;;17.39;44.43
39309;BME280;26019;47.510;19.122;2024-03-29T10:04:32;99941.09;;;18.95;39.52
39309;BME280;26019;47.510;19.122;2024-03-29T10:14:47;99923.78;;;16.84;45.07
39309;BME280;26019;47.510;19.122;2024-03-29T10:25:01;99926.03;;;17.17;45.77
39309;BME280;26019;47.510;19.122;2024-03-29T10:35:01;99908.63;;;19.54;43.42
39309;BME280;26019;47.510;19.122;2024-03-29T10:45:05;99896.06;;;17.69;47.19
39309;BME280;26019;47.510;19.122;2024-03-29T10:55:12;99883.06;;;19.05;44.38
39309;BME280;26019;47.510;19.122;2024-03-29T11:05:16;99850.78;;;22.25;38.67
39309;BME280;26019;47.510;19.122;2024-03-29T11:15:26;99831.75;;;21.78;38.81
39309;BME280;26019;47.510;19.122;2024-03-29T11:25:43;99822.28;;;20.84;41.90
39309;BME280;26019;47.510;19.122;2024-03-29T11:35:47;99796.09;;;22.30;41.24
39309;BME280;26019;47.510;19.122;2024-03-29T11:45:49;99807.63;;;20.16;45.99
39309;BME280;26019;47.510;19.122;2024-03-29T11:55:53;99788.81;;;19.91;49.77
39309;BME280;26019;47.510;19.122;2024-03-29T12:05:55;99794.06;;;18.68;54.90
39309;BME280;26019;47.510;19.122;2024-03-29T12:16:00;99768.84;;;17.90;60.18
39309;BME280;26019;47.510;19.122;2024-03-29T12:26:02;99770.28;;;18.17;60.61
39309;BME280;26019;47.510;19.122;2024-03-29T12:36:04;99761.63;;;18.53;59.10
39309;BME280;26019;47.510;19.122;2024-03-29T12:46:05;99759.16;;;18.50;61.24
39309;BME280;26019;47.510;19.122;2024-03-29T12:56:07;99730.69;;;18.44;60.23
39309;BME280;26019;47.510;19.122;2024-03-29T13:06:08;99737.41;;;18.30;60.44
39309;BME280;26019;47.510;19.122;2024-03-29T13:16:10;99719.34;;;19.15;57.30
39309;BME280;26019;47.510;19.122;2024-03-29T13:26:11;99705.97;;;19.37;57.08
39309;BME280;26019;47.510;19.122;2024-03-29T13:36:12;99695.47;;;19.37;57.24
39309;BME280;26019;47.510;19.122;2024-03-29T13:46:15;99684.56;;;24.97;41.58
39309;BME280;26019;47.510;19.122;2024-03-29T13:56:16;99679.03;;;24.17;42.55
39309;BME280;26019;47.510;19.122;2024-03-29T14:06:17;99668.31;;;21.26;48.94
39309;BME280;26019;47.510;19.122;2024-03-29T14:16:18;99659.06;;;20.14;53.43
39309;BME280;26019;47.510;19.122;2024-03-29T14:26:19;99670.72;;;19.93;54.90
39309;BME280;26019;47.510;19.122;2024-03-29T14:36:19;99660.28;;;22.28;47.68
39309;BME280;26019;47.510;19.122;2024-03-29T14:46:20;99653.63;;;23.66;44.66
39309;BME280;26019;47.510;19.122;2024-03-29T14:56:21;99659.31;;;21.45;48.06
39309;BME280;26019;47.510;19.122;2024-03-29T15:06:22;99637.38;;;25.26;40.07
39309;BME280;26019;47.510;19.122;2024-03-29T15:16:24;99650.84;;;23.04;43.48
39309;BME280;26019;47.510;19.122;2024-03-29T15:26:29;99631.59;;;22.10;45.45
39309;BME280;26019;47.510;19.122;2024-03-29T15:36:31;99636.63;;;21.29;48.86
39309;BME280;26019;47.510;19.122;2024-03-29T15:46:33;99629.94;;;21.67;49.03
39309;BME280;26019;47.510;19.122;2024-03-29T15:56:35;99621.03;;;20.97;51.77
39309;BME280;26019;47.510;19.122;2024-03-29T16:06:36;99626.81;;;20.43;53.17
39309;BME280;26019;47.510;19.122;2024-03-29T16:16:37;99619.72;;;20.14;55.32
39309;BME280;26019;47.510;19.122;2024-03-29T16:26:38;99599.72;;;20.12;56.02
39309;BME280;26019;47.510;19.122;2024-03-29T16:36:39;99592.91;;;19.45;58.97
39309;BME280;26019;47.510;19.122;2024-03-29T16:46:41;99587.66;;;19.13;63.10
39309;BME280;26019;47.510;19.122;2024-03-29T16:56:42;99594.88;;;18.90;66.38
39309;BME280;26019;47.510;19.122;2024-03-29T17:06:43;99586.78;;;18.61;70.19
39309;BME280;26019;47.510;19.122;2024-03-29T17:16:45;99580.03;;;18.40;74.17
39309;BME280;26019;47.510;19.122;2024-03-29T17:26:48;99569.25;;;18.28;75.99
39309;BME280;26019;47.510;19.122;2024-03-29T17:36:51;99562.78;;;18.00;80.50
39309;BME280;26019;47.510;19.122;2024-03-29T17:46:57;99565.19;;;17.86;82.00
39309;BME280;26019;47.510;19.122;2024-03-29T17:56:58;99579.25;;;17.83;81.75
39309;BME280;26019;47.510;19.122;2024-03-29T18:06:58;99580.69;;;17.71;82.57
39309;BME280;26019;47.510;19.122;2024-03-29T18:16:59;99573.06;;;17.67;81.65
39309;BME280;26019;47.510;19.122;2024-03-29T18:27:00;99582.41;;;17.53;82.27
39309;BME280;26019;47.510;19.122;2024-03-29T18:37:02;99581.97;;;17.43;83.11
39309;BME280;26019;47.510;19.122;2024-03-29T18:47:05;99593.69;;;17.15;87.48
39309;BME280;26019;47.510;19.122;2024-03-29T18:57:06;99613.06;;;16.89;90.21
39309;BME280;26019;47.510;19.122;2024-03-29T19:07:09;99625.00;;;16.74;92.68
39309;BME280;26019;47.510;19.122;2024-03-29T19:17:10;99625.00;;;16.74;91.99
39309;BME280;26019;47.510;19.122;2024-03-29T19:27:11;99629.69;;;16.66;93.62
39309;BME280;26019;47.510;19.122;2024-03-29T19:37:12;99631.28;;;16.49;94.43
39309;BME280;26019;47.510;19.122;2024-03-29T19:47:14;99657.38;;;16.27;97.80
39309;BME280;26019;47.510;19.122;2024-03-29T19:57:15;99662.38;;;16.09;100.00
39309;BME280;26019;47.510;19.122;2024-03-29T20:07:22;99653.41;;;15.94;100.00
39309;BME280;26019;47.510;19.122;2024-03-29T20:17:25;99662.75;;;15.76;100.00
39309;BME280;26019;47.510;19.122;2024-03-29T20:27:26;99663.97;;;15.67;100.00
39309;BME280;26019;47.510;19.122;2024-03-29T20:37:27;99653.75;;;15.61;100.00
39309;BME280;26019;47.510;19.122;2024-03-29T20:47:28;99668.94;;;15.74;100.00
39309;BME280;26019;47.510;19.122;2024-03-29T20:57:30;99671.44;;;15.77;100.00
39309;BME280;26019;47.510;19.122;2024-03-29T21:07:32;99666.34;;;15.74;100.00
39309;BME280;26019;47.510;19.122;2024-03-29T21:17:33;99671.09;;;15.62;100.00
39309;BME280;26019;47.510;19.122;2024-03-29T21:27:43;99662.59;;;15.57;100.00
39309;BME280;26019;47.510;19.122;2024-03-29T21:37:44;99660.78;;;15.59;100.00
39309;BME280;26019;47.510;19.122;2024-03-29T21:47:44;99663.25;;;15.64;100.00
39309;BME280;26019;47.510;19.122;2024-03-29T21:57:45;99662.47;;;15.60;100.00
39309;BME280;26019;47.510;19.122;2024-03-29T22:07:51;99660.94;;;15.56;100.00
39309;BME280;26019;47.510;19.122;2024-03-29T22:17:51;99662.16;;;15.46;100.00
39309;BME280;26019;47.510;19.122;2024-03-29T22:27:52;99662.59;;;15.57;98.72
39309;BME280;26019;47.510;19.122;2024-03-29T22:37:54;99656.44;;;15.60;97.39
39309;BME280;26019;47.510;19.122;2024-03-29T22:47:58;99662.06;;;15.49;98.32
39309;BME280;26019;47.510;19.122;2024-03-29T22:58:01;99655.91;;;15.26;100.00
39309;BME280;26019;47.510;19.122;2024-03-29T23:08:02;99664.06;;;15.17;100.00
39309;BME280;26019;47.510;19.122;2024-03-29T23:18:04;99667.19;;;15.01;100.00
39309;BME280;26019;47.510;19.122;2024-03-29T23:28:05;99678.72;;;14.94;100.00
39309;BME280;26019;47.510;19.122;2024-03-29T23:38:06;99668.63;;;14.85;100.00
39309;BME280;26019;47.510;19.122;2024-03-29T23:48:10;99673.06;;;14.81;100.00
39309;BME280;26019;47.510;19.122;2024-03-29T23:58:10;99669.16;;;14.69;100.00
